Time;durP1;ratioP1;P1;durP2;ratioP2;P2;SDS_P1;SDS_P2;PMS_P1;PMS_P2;Temp;Humidity;BMP_temperature;BMP_pressure;BME280_temperature;BME280_humidity;BME280_pressure;Samples;Min_cycle;Max_cycle;Signal;HPM_P1;HPM_P2
2021/07/02 00:01:21;;;;;;;0.70;0.20;;;22.90;65.00;;;;;;3553906;40;20407;-65
2021/07/02 00:03:47;;;;;;;0.25;0.20;;;22.80;66.40;;;;;;3545393;40;20403;-65
2021/07/02 00:06:13;;;;;;;0.20;0.20;;;22.80;65.70;;;;;;3568089;40;20822;-65
2021/07/02 00:08:39;;;;;;;0.43;0.20;;;22.70;65.50;;;;;;3569960;40;20408;-65
2021/07/02 00:11:05;;;;;;;0.33;0.20;;;22.80;65.30;;;;;;3569568;40;20393;-65
2021/07/02 00:13:31;;;;;;;1.27;0.20;;;22.70;65.50;;;;;;3569539;40;20417;-65
2021/07/02 00:15:57;;;;;;;0.50;0.10;;;22.70;65.50;;;;;;3572336;40;20648;-65
2021/07/02 00:18:24;;;;;;;0.80;0.10;;;22.80;64.80;;;;;;3561901;40;20425;-66
2021/07/02 00:20:50;;;;;;;0.15;0.10;;;22.90;64.60;;;;;;3569446;40;20643;-66
2021/07/02 00:23:16;;;;;;;0.80;0.10;;;23.00;64.50;;;;;;3566081;40;20381;-65
2021/07/02 00:25:42;;;;;;;0.50;0.10;;;22.90;65.80;;;;;;3573018;40;20397;-65
2021/07/02 00:28:08;;;;;;;0.30;0.20;;;22.80;65.30;;;;;;3565161;40;20412;-66
2021/07/02 00:30:36;;;;;;;0.50;0.15;;;22.80;65.40;;;;;;3574222;40;20486;-66
2021/07/02 00:33:02;;;;;;;1.40;0.30;;;22.70;65.50;;;;;;3564409;40;20401;-66
2021/07/02 00:35:29;;;;;;;0.70;0.20;;;22.60;65.90;;;;;;3569693;40;20391;-65
2021/07/02 00:37:55;;;;;;;0.60;0.20;;;22.60;66.40;;;;;;3569121;40;20404;-65
2021/07/02 00:40:21;;;;;;;0.97;0.20;;;22.50;66.20;;;;;;3573342;40;20378;-65
2021/07/02 00:42:47;;;;;;;0.60;0.10;;;22.50;66.00;;;;;;3568851;40;20426;-65
2021/07/02 00:45:13;;;;;;;0.70;0.10;;;22.50;65.90;;;;;;3568242;40;20383;-66
2021/07/02 00:47:39;;;;;;;0.20;0.20;;;22.50;65.40;;;;;;3558441;40;20389;-66
2021/07/02 00:50:06;;;;;;;0.55;0.32;;;22.50;66.20;;;;;;3566115;40;20512;-65
2021/07/02 00:52:34;;;;;;;0.90;0.20;;;22.60;65.50;;;;;;3565263;40;20388;-65
2021/07/02 00:55:00;;;;;;;0.37;0.20;;;22.70;64.50;;;;;;3557274;40;20791;-65
2021/07/02 00:57:27;;;;;;;0.80;0.20;;;22.70;64.60;;;;;;3567314;40;20480;-65
2021/07/02 00:59:53;;;;;;;0.60;0.20;;;22.70;65.10;;;;;;3559134;40;20401;-65
2021/07/02 01:02:19;;;;;;;0.68;0.20;;;22.70;64.60;;;;;;3568909;40;20441;-65
2021/07/02 01:04:45;;;;;;;0.30;0.20;;;22.60;64.60;;;;;;3599382;23;20668;-68
2021/07/02 01:07:12;;;;;;;0.80;0.15;;;22.60;64.50;;;;;;3587524;40;20496;-68
2021/07/02 01:09:44;;;;;;;0.65;0.30;;;22.70;64.10;;;;;;3586877;40;20397;-66
2021/07/02 01:12:11;;;;;;;1.60;0.20;;;22.70;64.40;;;;;;3578214;40;20390;-67
2021/07/02 01:14:37;;;;;;;1.05;0.20;;;22.70;64.40;;;;;;3587612;40;20386;-66
2021/07/02 01:17:03;;;;;;;1.60;0.20;;;22.80;63.80;;;;;;3587394;40;20382;-66
2021/07/02 01:19:29;;;;;;;0.30;0.20;;;22.70;64.20;;;;;;3587100;40;20382;-67
2021/07/02 01:21:56;;;;;;;0.75;0.10;;;22.70;64.40;;;;;;3587313;40;20395;-67
2021/07/02 01:24:23;;;;;;;0.85;0.20;;;22.60;64.50;;;;;;3589035;40;20399;-67
2021/07/02 01:26:51;;;;;;;0.10;0.10;;;22.60;64.10;;;;;;3587095;40;20433;-66
2021/07/02 01:29:17;;;;;;;0.52;0.20;;;22.70;63.30;;;;;;3585277;40;20787;-66
2021/07/02 01:31:43;;;;;;;0.20;0.10;;;22.70;63.40;;;;;;3588108;40;20403;-67
2021/07/02 01:34:09;;;;;;;1.58;0.30;;;22.70;63.60;;;;;;3578107;40;20454;-67
2021/07/02 01:36:35;;;;;;;0.35;0.10;;;22.60;63.90;;;;;;3587124;40;20385;-67
2021/07/02 01:39:03;;;;;;;1.00;0.20;;;22.70;63.30;;;;;;3586805;40;20472;-67
2021/07/02 01:41:29;;;;;;;2.60;0.20;;;22.70;63.50;;;;;;3582331;40;20389;-67
2021/07/02 01:43:55;;;;;;;1.00;0.20;;;22.70;63.20;;;;;;3587129;40;20378;-67
2021/07/02 01:46:21;;;;;;;0.52;0.20;;;22.70;62.80;;;;;;3587089;40;20499;-67
2021/07/02 01:48:47;;;;;;;0.35;0.20;;;22.70;63.10;;;;;;3582865;40;20433;-67
2021/07/02 01:51:13;;;;;;;0.30;0.17;;;22.80;62.60;;;;;;3579865;40;20406;-67
2021/07/02 01:53:39;;;;;;;0.50;0.13;;;22.70;62.60;;;;;;3589954;40;20500;-67
2021/07/02 01:56:06;;;;;;;0.30;0.17;;;22.70;62.80;;;;;;3586793;40;20390;-67
2021/07/02 01:58:32;;;;;;;1.50;0.20;;;22.80;62.70;;;;;;3574243;40;20667;-67
2021/07/02 02:00:58;;;;;;;0.35;0.10;;;22.80;62.10;;;;;;3584790;40;20374;-67
2021/07/02 02:03:24;;;;;;;0.30;0.20;;;22.80;62.20;;;;;;3586969;40;20416;-67
2021/07/02 02:05:50;;;;;;;0.60;0.20;;;22.80;62.20;;;;;;3588068;40;20648;-67
2021/07/02 02:08:16;;;;;;;0.43;0.15;;;22.60;63.10;;;;;;3582897;40;20458;-65
2021/07/02 02:10:42;;;;;;;0.40;0.20;;;22.70;62.20;;;;;;3586880;40;20390;-66
2021/07/02 02:13:10;;;;;;;0.80;0.20;;;22.70;61.80;;;;;;3586804;40;20491;-66
2021/07/02 02:15:35;;;;;;;0.30;0.20;;;22.80;62.00;;;;;;3587275;40;20751;-66
2021/07/02 02:18:02;;;;;;;0.30;0.20;;;22.80;62.00;;;;;;3587007;40;20386;-66
2021/07/02 02:20:28;;;;;;;1.73;0.20;;;22.80;62.20;;;;;;3578021;40;20398;-66
2021/07/02 02:22:54;;;;;;;0.80;0.20;;;22.80;61.80;;;;;;3579252;40;20520;-66
2021/07/02 02:25:20;;;;;;;1.10;0.20;;;22.70;62.50;;;;;;3588529;40;20382;-66
2021/07/02 02:27:48;;;;;;;0.60;0.20;;;22.60;62.50;;;;;;3585618;40;20462;-66
2021/07/02 02:30:16;;;;;;;0.47;0.20;;;22.60;62.70;;;;;;3584414;40;20468;-66
2021/07/02 02:32:42;;;;;;;0.30;0.20;;;22.60;62.70;;;;;;3583456;40;20398;-67
2021/07/02 02:35:09;;;;;;;0.43;0.20;;;22.50;62.90;;;;;;3586761;40;20386;-66
2021/07/02 02:37:35;;;;;;;0.20;0.10;;;22.50;63.20;;;;;;3586687;40;20452;-66
2021/07/02 02:40:02;;;;;;;0.32;0.20;;;22.40;62.40;;;;;;3586969;40;20390;-66
2021/07/02 02:42:28;;;;;;;0.50;0.20;;;;;;;;;;3586663;40;20406;-67
2021/07/02 02:44:54;;;;;;;0.30;0.20;;;;;;;;;;3584173;40;20745;-66
2021/07/02 02:47:22;;;;;;;0.25;0.20;;;;;;;;;;3586077;40;20463;-67
2021/07/02 02:49:48;;;;;;;0.82;0.20;;;;;;;;;;3575825;40;20426;-66
2021/07/02 02:52:14;;;;;;;0.90;0.30;;;;;;;;;;3586743;40;20382;-66
2021/07/02 02:54:40;;;;;;;0.60;0.17;;;;;;;;;;3586665;40;20751;-66
2021/07/02 02:57:07;;;;;;;0.38;0.13;;;;;;;;;;3586779;40;20456;-67
2021/07/02 02:59:34;;;;;;;0.30;0.20;;;;;;;;;;3586652;40;20385;-67
2021/07/02 03:02:00;;;;;;;0.20;0.20;;;;;;;;;;3584023;40;20393;-68
2021/07/02 03:04:28;;;;;;;0.10;0.10;;;;;;;;;;3585530;40;20473;-68
2021/07/02 03:06:56;;;;;;;0.75;0.20;;;22.40;63.40;;;;;;3584751;40;21589;-69
2021/07/02 03:09:21;;;;;;;0.50;0.15;;;22.10;63.70;;;;;;3586146;40;20406;-69
2021/07/02 03:11:51;;;;;;;0.80;0.20;;;22.10;63.40;;;;;;3586526;40;20385;-69
2021/07/02 03:14:17;;;;;;;0.20;0.20;;;22.20;63.40;;;;;;3586624;40;20635;-68
2021/07/02 03:16:43;;;;;;;0.30;0.20;;;22.20;63.10;;;;;;3586373;40;20631;-68
2021/07/02 03:19:09;;;;;;;0.68;0.20;;;22.20;63.40;;;;;;3586550;40;20482;-68
2021/07/02 03:21:37;;;;;;;1.92;0.30;;;;;;;;;;3585787;40;20386;-68
2021/07/02 03:24:03;;;;;;;0.90;0.20;;;;;;;;;;3586452;40;20443;-68
2021/07/02 03:26:29;;;;;;;0.50;0.20;;;;;;;;;;3586341;40;20650;-68
2021/07/02 03:28:55;;;;;;;0.50;0.20;;;;;;;;;;3586504;40;20885;-68
2021/07/02 03:31:22;;;;;;;0.70;0.10;;;;;;;;;;3588124;40;20832;-68
2021/07/02 03:33:48;;;;;;;0.25;0.20;;;;;;;;;;3581567;40;20406;-68
2021/07/02 03:36:14;;;;;;;0.30;0.20;;;;;;;;;;3580046;40;20774;-68
2021/07/02 03:38:42;;;;;;;0.30;0.20;;;;;;;;;;3585933;40;20382;-68
2021/07/02 03:41:09;;;;;;;0.55;0.20;;;;;;;;;;3586298;40;20453;-68
2021/07/02 03:43:35;;;;;;;0.82;0.20;;;;;;;;;;3586236;40;20366;-68
2021/07/02 03:46:01;;;;;;;1.10;0.20;;;;;;;;;;3586206;40;20635;-68
2021/07/02 03:48:27;;;;;;;0.28;0.20;;;;;;;;;;3579658;40;20767;-67
2021/07/02 03:50:53;;;;;;;0.70;0.20;;;;;;;;;;3585911;40;20383;-68
2021/07/02 03:53:20;;;;;;;1.80;0.20;;;;;;;;;;3586147;40;20378;-68
2021/07/02 03:55:47;;;;;;;0.90;0.20;;;;;;;;;;3584034;40;20467;-68
2021/07/02 03:58:13;;;;;;;0.43;0.20;;;;;;;;;;3583381;40;20406;-68
2021/07/02 04:00:40;;;;;;;0.43;0.20;;;;;;;;;;3585929;40;20378;-67
2021/07/02 04:03:06;;;;;;;0.32;0.10;;;;;;;;;;3589531;40;20672;-68
2021/07/02 04:05:32;;;;;;;1.00;0.20;;;;;;;;;;3581245;40;20398;-67
2021/07/02 04:07:59;;;;;;;0.30;0.20;;;;;;;;;;3574094;40;20480;-68
2021/07/02 04:10:25;;;;;;;0.50;0.20;;;;;;;;;;3572224;40;20376;-68
2021/07/02 04:12:52;;;;;;;0.30;0.20;;;;;;;;;;3575941;40;20396;-68
2021/07/02 04:15:18;;;;;;;0.60;0.30;;;;;;;;;;3575785;40;20474;-68
2021/07/02 04:17:45;;;;;;;0.30;0.10;;;;;;;;;;3575863;40;20352;-68
2021/07/02 04:20:11;;;;;;;0.40;0.20;;;;;;;;;;3575908;40;20392;-68
2021/07/02 04:22:38;;;;;;;0.40;0.20;;;;;;;;;;3576168;40;20454;-68
2021/07/02 04:25:05;;;;;;;0.30;0.20;;;;;;;;;;3577085;40;20395;-68
2021/07/02 04:27:31;;;;;;;0.30;0.10;;;;;;;;;;3577383;40;20398;-67
2021/07/02 04:30:01;;;;;;;1.05;0.10;;;;;;;;;;3576319;40;20660;-67
2021/07/02 04:32:27;;;;;;;1.80;0.20;;;;;;;;;;3577292;40;20384;-68
2021/07/02 04:34:53;;;;;;;1.30;0.20;;;;;;;;;;3577671;40;20380;-67
2021/07/02 04:37:20;;;;;;;1.75;0.20;;;;;;;;;;3577545;40;20405;-67
2021/07/02 04:39:46;;;;;;;0.30;0.20;;;;;;;;;;3578739;40;20388;-68
2021/07/02 04:42:12;;;;;;;0.70;0.20;;;;;;;;;;3579193;40;20380;-68
2021/07/02 04:44:39;;;;;;;0.30;0.10;;;;;;;;;;3567844;40;20412;-68
2021/07/02 04:47:07;;;;;;;0.57;0.20;;;;;;;;;;3577359;40;20462;-68
2021/07/02 04:49:33;;;;;;;0.50;0.22;;;;;;;;;;3577885;40;20403;-67
2021/07/02 04:51:59;;;;;;;0.70;0.20;;;;;;;;;;3576739;40;20383;-68
2021/07/02 04:54:26;;;;;;;0.38;0.20;;;;;;;;;;3576856;40;20364;-67
2021/07/02 04:56:52;;;;;;;0.55;0.38;;;;;;;;;;3576959;40;20376;-68
2021/07/02 04:59:21;;;;;;;1.17;0.20;;;;;;;;;;3576979;40;20385;-68
2021/07/02 05:01:48;;;;;;;0.77;0.30;;;;;;;;;;3577032;40;20399;-68
2021/07/02 05:04:15;;;;;;;0.40;0.20;;;;;;;;;;3576901;40;20508;-68
2021/07/02 05:06:41;;;;;;;0.70;0.20;;;;;;;;;;3585386;40;20746;-68
2021/07/02 05:09:08;;;;;;;0.60;0.30;;;;;;;;;;3578888;40;20538;-68
2021/07/02 05:11:34;;;;;;;0.40;0.20;;;;;;;;;;3579264;40;21300;-68
2021/07/02 05:14:00;;;;;;;0.47;0.20;;;;;;;;;;3576324;40;20408;-67
2021/07/02 05:16:26;;;;;;;0.85;0.20;;;;;;;;;;3578790;40;20363;-68
2021/07/02 05:18:52;;;;;;;0.50;0.20;;;;;;;;;;3577174;40;20399;-67
2021/07/02 05:21:20;;;;;;;2.70;0.52;;;;;;;;;;3579325;40;20467;-67
2021/07/02 05:23:46;;;;;;;0.20;0.15;;;;;;;;;;3573675;40;20730;-67
2021/07/02 05:26:13;;;;;;;0.93;0.30;;;;;;;;;;3576179;40;20648;-67
2021/07/02 05:28:39;;;;;;;0.90;0.20;;;;;;;;;;3575894;40;20423;-67
2021/07/02 05:31:05;;;;;;;0.20;0.20;;;;;;;;;;3575913;40;20483;-70
2021/07/02 05:33:31;;;;;;;0.63;0.17;;;;;;;;;;3580977;40;20380;-69
2021/07/02 05:35:58;;;;;;;0.75;0.20;;;;;;;;;;3582172;40;20409;-67
2021/07/02 05:38:25;;;;;;;1.10;0.22;;;;;;;;;;3579274;40;20644;-68
2021/07/02 05:40:55;;;;;;;1.17;0.30;;;;;;;;;;3579043;40;20390;-68
2021/07/02 05:43:21;;;;;;;1.00;0.20;;;;;;;;;;3579653;40;20382;-68
2021/07/02 05:45:47;;;;;;;0.20;0.20;;;;;;;;;;3577011;40;20653;-68
2021/07/02 05:48:16;;;;;;;0.30;0.20;;;;;;;;;;3576940;40;20762;-69
2021/07/02 05:50:42;;;;;;;1.38;0.30;;;;;;;;;;3577076;40;20734;-68
2021/07/02 05:53:08;;;;;;;0.52;0.20;;;;;;;;;;3577142;40;20394;-68
2021/07/02 05:55:36;;;;;;;0.90;0.20;;;;;;;;;;3577856;40;20437;-69
2021/07/02 05:58:03;;;;;;;0.50;0.30;;;;;;;;;;3583623;40;20888;-68
2021/07/02 06:00:29;;;;;;;1.27;0.20;;;;;;;;;;3578628;40;20410;-69
2021/07/02 06:02:55;;;;;;;1.20;0.30;;;;;;;;;;3576646;40;20404;-69
2021/07/02 06:05:22;;;;;;;0.40;0.20;;;;;;;;;;3574619;40;20394;-68
2021/07/02 06:07:49;;;;;;;1.10;0.22;;;;;;;;;;3578049;40;20762;-69
2021/07/02 06:10:16;;;;;;;0.20;0.20;;;;;;;;;;3577200;40;20391;-69
2021/07/02 06:12:44;;;;;;;0.60;0.35;;;;;;;;;;3576551;40;20497;-68
2021/07/02 06:15:12;;;;;;;0.90;0.20;;;;;;;;;;3576637;40;20407;-68
2021/07/02 06:17:38;;;;;;;0.32;0.20;;;;;;;;;;3575062;40;20399;-68
2021/07/02 06:20:05;;;;;;;0.80;0.35;;;;;;;;;;3577876;40;20402;-68
2021/07/02 06:22:31;;;;;;;1.63;0.20;;;;;;;;;;3579123;40;20393;-69
2021/07/02 06:24:57;;;;;;;0.30;0.20;;;;;;;;;;3576225;40;20399;-68
2021/07/02 06:27:23;;;;;;;2.00;0.30;;;;;;;;;;3579065;40;20374;-68
2021/07/02 06:29:51;;;;;;;0.50;0.20;;;;;;;;;;3577057;40;20453;-68
2021/07/02 06:32:17;;;;;;;0.40;0.20;;;;;;;;;;3576731;40;20407;-68
2021/07/02 06:34:43;;;;;;;0.90;0.20;;;;;;;;;;3575803;40;20396;-68
2021/07/02 06:37:09;;;;;;;0.70;0.20;;;;;;;;;;3577084;40;20400;-69
2021/07/02 06:39:36;;;;;;;0.60;0.30;;;;;;;;;;3576971;40;20400;-68
2021/07/02 06:42:02;;;;;;;0.30;0.20;;;;;;;;;;3579962;40;20375;-68
2021/07/02 06:44:28;;;;;;;1.38;0.30;;;;;;;;;;3580650;40;20378;-70
2021/07/02 06:46:56;;;;;;;0.43;0.30;;;;;;;;;;3578393;40;20685;-69
2021/07/02 06:49:22;;;;;;;0.40;0.30;;;;;;;;;;3580933;40;20382;-69
2021/07/02 06:51:48;;;;;;;0.60;0.30;;;;;;;;;;3576944;40;20658;-69
2021/07/02 06:54:14;;;;;;;1.10;0.20;;;;;;;;;;3576679;40;20420;-69
2021/07/02 06:57:00;;;;;;;0.70;0.30;;;;;;;;;;3576738;40;20383;-69
2021/07/02 06:59:26;;;;;;;0.50;0.20;;;;;;;;;;3582049;40;20387;-69
2021/07/02 07:01:54;;;;;;;1.03;0.30;;;;;;;;;;3576672;40;20395;-69
2021/07/02 07:04:21;;;;;;;0.40;0.30;;;;;;;;;;3577045;40;20384;-70
2021/07/02 07:06:47;;;;;;;0.40;0.20;;;;;;;;;;3579652;40;20406;-69
2021/07/02 07:09:13;;;;;;;0.20;0.20;;;;;;;;;;3579547;40;20400;-70
2021/07/02 07:11:40;;;;;;;1.42;0.30;;;;;;;;;;3578134;40;20404;-69
2021/07/02 07:14:06;;;;;;;1.20;0.20;;;;;;;;;;3577736;40;20644;-69
2021/07/02 07:16:33;;;;;;;2.45;0.20;;;;;;;;;;3575343;40;20401;-69
2021/07/02 07:18:59;;;;;;;1.30;0.30;;;;;;;;;;3576361;40;20494;-70
2021/07/02 07:21:27;;;;;;;0.20;0.20;;;;;;;;;;3576757;40;20657;-70
2021/07/02 07:23:53;;;;;;;0.68;0.30;;;;;;;;;;3578944;40;20715;-70
2021/07/02 07:26:20;;;;;;;1.00;0.25;;;;;;;;;;3578471;40;20406;-69
2021/07/02 07:28:46;;;;;;;1.23;0.30;;;;;;;;;;3577166;40;20398;-69
2021/07/02 07:31:12;;;;;;;0.77;0.23;;;;;;;;;;3577187;40;20390;-71
2021/07/02 07:33:42;;;;;;;0.40;0.30;;;;;;;;;;3579783;40;20388;-69
2021/07/02 07:36:11;;;;;;;1.10;0.40;;;21.40;70.00;;;;;;3576108;40;20630;-70
2021/07/02 07:38:38;;;;;;;2.00;0.40;;;24.90;71.10;;;;;;3579500;40;20383;-69
2021/07/02 07:41:04;;;;;;;1.03;0.40;;;24.90;70.10;;;;;;3574852;40;20391;-70
2021/07/02 07:43:30;;;;;;;1.13;0.30;;;25.00;70.80;;;;;;3577385;40;20933;-69
2021/07/02 07:45:56;;;;;;;2.38;0.50;;;25.00;72.90;;;;;;3575222;40;20472;-69
2021/07/02 07:48:22;;;;;;;2.60;0.50;;;25.10;75.60;;;;;;3575872;40;20396;-70
2021/07/02 07:50:51;;;;;;;2.55;0.60;;;25.10;76.20;;;;;;3575056;40;20493;-69
2021/07/02 07:53:17;;;;;;;1.45;0.50;;;;;;;;;;3575392;40;20506;-69
2021/07/02 07:55:45;;;;;;;6.43;0.70;;;;;;;;;;3580287;40;20807;-69
2021/07/02 07:58:11;;;;;;;1.55;0.65;;;25.40;78.20;;;;;;3582703;40;20464;-69
2021/07/02 08:00:37;;;;;;;3.90;0.70;;;;;;;;;;3574528;40;20768;-68
2021/07/02 08:03:03;;;;;;;3.13;0.60;;;25.60;77.30;;;;;;3577052;40;20391;-69
2021/07/02 08:05:30;;;;;;;3.97;0.60;;;26.00;78.50;;;;;;3578715;40;20387;-69
2021/07/02 08:07:56;;;;;;;2.72;0.50;;;;;;;;;;3587882;40;20381;-68
2021/07/02 08:10:25;;;;;;;2.78;0.50;;;;;;;;;;3586746;40;20651;-69
2021/07/02 08:12:53;;;;;;;4.85;0.88;;;;;;;;;;3587361;40;20759;-69
2021/07/02 08:15:19;;;;;;;2.13;0.50;;;;;;;;;;3580856;40;20458;-69
2021/07/02 08:17:46;;;;;;;6.05;0.70;;;;;;;;;;3585667;40;20372;-69
2021/07/02 08:20:12;;;;;;;1.77;0.50;;;;;;;;;;3581674;40;20397;-68
2021/07/02 08:22:39;;;;;;;3.15;0.80;;;;;;;;;;3579256;40;20390;-69
2021/07/02 08:25:06;;;;;;;2.93;0.70;;;;;;;;;;3587283;40;20374;-68
2021/07/02 08:29:22;;;;;;;2.30;0.45;;;;;;;;;;3587276;40;20374;-69
2021/07/02 08:30:22;;;;;;;3.67;1.05;;;;;;;;;;3586691;40;20438;-69
2021/07/02 08:32:48;;;;;;;2.40;0.57;;;26.40;96.50;;;;;;3587166;40;20480;-69
2021/07/02 08:35:15;;;;;;;4.15;0.70;;;;;;;;;;3587053;40;20510;-69
2021/07/02 08:37:41;;;;;;;1.80;0.60;;;26.60;90.50;;;;;;3581249;40;20410;-69
2021/07/02 08:40:07;;;;;;;4.20;0.60;;;;;;;;;;3587624;40;20667;-69
2021/07/02 08:42:35;;;;;;;3.33;1.00;;;;;;;;;;3588574;40;20473;-68
2021/07/02 08:45:02;;;;;;;2.72;0.50;;;;;;;;;;3590282;40;20411;-68
2021/07/02 08:47:29;;;;;;;3.50;0.70;;;;;;;;;;3590297;40;20378;-68
2021/07/02 08:49:56;;;;;;;2.03;0.50;;;;;;;;;;3591736;40;20489;-69
2021/07/02 08:52:22;;;;;;;2.60;0.70;;;;;;;;;;3590101;40;20395;-68
2021/07/02 08:54:48;;;;;;;4.00;0.50;;;;;;;;;;3580281;40;20394;-68
2021/07/02 08:57:14;;;;;;;3.22;0.75;;;;;;;;;;3590615;40;20384;-69
2021/07/02 08:59:40;;;;;;;1.80;0.55;;;26.80;87.90;;;;;;3590486;40;20473;-69
2021/07/02 09:02:06;;;;;;;1.83;0.50;;;27.30;81.30;;;;;;3591745;40;20419;-69
2021/07/02 09:04:34;;;;;;;3.40;0.80;;;;;;;;;;3590892;39;20480;-68
2021/07/02 09:07:05;;;;;;;5.03;0.70;;;;;;;;;;3576681;40;20430;-69
2021/07/02 09:09:48;;;;;;;2.97;0.60;;;;;;;;;;3579991;40;20386;-69
2021/07/02 09:12:15;;;;;;;0.88;0.40;;;;;;;;;;3579718;40;20724;-68
2021/07/02 09:14:54;;;;;;;1.48;0.60;;;;;;;;;;3582066;40;20386;-69
2021/07/02 09:17:20;;;;;;;2.75;0.50;;;;;;;;;;3580429;40;20709;-68
2021/07/02 09:20:01;;;;;;;3.05;0.70;;;;;;;;;;3580856;40;20439;-68
2021/07/02 09:22:27;;;;;;;3.20;0.50;;;;;;;;;;3581172;40;20768;-69
2021/07/02 09:24:54;;;;;;;2.90;0.50;;;;;;;;;;3580596;40;20549;-69
2021/07/02 09:27:24;;;;;;;1.83;0.50;;;;;;;;;;3579999;40;20413;-69
2021/07/02 09:30:04;;;;;;;1.93;0.50;;;;;;;;;;3579289;40;20425;-69
2021/07/02 09:32:30;;;;;;;1.73;0.50;;;;;;;;;;3580793;40;20367;-68
2021/07/02 09:34:59;;;;;;;2.10;0.40;;;;;;;;;;3578455;40;20416;-69
2021/07/02 09:37:26;;;;;;;1.13;0.50;;;;;;;;;;3580738;40;20391;-69
2021/07/02 09:39:53;;;;;;;1.70;0.50;;;;;;;;;;3580480;40;20412;-68
2021/07/02 09:42:23;;;;;;;2.17;0.50;;;;;;;;;;3580299;40;20418;-69
2021/07/02 09:45:02;;;;;;;1.23;0.40;;;;;;;;;;3580086;40;20378;-68
2021/07/02 09:47:29;;;;;;;1.83;0.40;;;;;;;;;;3579524;40;20640;-68
2021/07/02 09:50:10;;;;;;;1.40;0.70;;;;;;;;;;3579555;40;20406;-69
2021/07/02 09:52:42;;;;;;;1.80;0.40;;;;;;;;;;3580065;40;20378;-69
2021/07/02 09:55:09;;;;;;;2.33;0.40;;;;;;;;;;3580623;40;20432;-69
2021/07/02 09:57:36;;;;;;;1.20;0.47;;;27.40;75.20;;;;;;3579986;40;20471;-69
2021/07/02 10:00:05;;;;;;;3.93;0.67;;;28.80;74.00;;;;;;3577767;40;20773;-69
2021/07/02 10:02:31;;;;;;;2.90;0.52;;;;;;;;;;3575588;40;20404;-69
2021/07/02 10:04:58;;;;;;;2.67;0.63;;;;;;;;;;3576560;40;20387;-68
2021/07/02 10:07:25;;;;;;;2.30;0.50;;;;;;;;;;3577121;40;20471;-68
2021/07/02 10:09:52;;;;;;;2.03;0.35;;;;;;;;;;3578949;40;20497;-68
2021/07/02 10:12:20;;;;;;;1.38;0.40;;;;;;;;;;3577379;40;20411;-68
2021/07/02 10:14:47;;;;;;;1.75;0.40;;;;;;;;;;3578200;40;20652;-68
2021/07/02 10:17:17;;;;;;;2.77;0.70;;;;;;;;;;3576604;40;20410;-68
2021/07/02 10:19:44;;;;;;;2.17;0.52;;;28.80;74.90;;;;;;3577596;40;20757;-69
2021/07/02 10:22:10;;;;;;;1.48;0.60;;;28.40;75.80;;;;;;3578061;40;20391;-68
2021/07/02 10:24:37;;;;;;;2.72;0.50;;;28.40;73.00;;;;;;3575825;40;20388;-68
2021/07/02 10:27:05;;;;;;;3.80;0.50;;;28.40;73.30;;;;;;3577913;40;20468;-68
2021/07/02 10:29:32;;;;;;;2.35;0.50;;;28.60;75.40;;;;;;3576669;40;20467;-68
2021/07/02 10:31:58;;;;;;;1.40;0.40;;;28.70;71.70;;;;;;3575929;40;20523;-68
2021/07/02 10:34:25;;;;;;;1.50;0.40;;;;;;;;;;3576879;40;20701;-68
2021/07/02 10:36:51;;;;;;;0.88;0.40;;;;;;;;;;3579436;40;20411;-69
2021/07/02 10:39:36;;;;;;;3.08;0.50;;;;;;;;;;3576656;40;20746;-69
2021/07/02 10:42:05;;;;;;;2.60;0.70;;;29.00;71.90;;;;;;3576663;40;20637;-68
2021/07/02 10:44:31;;;;;;;2.45;0.52;;;29.30;75.20;;;;;;3578321;40;20391;-68
2021/07/02 10:47:01;;;;;;;1.90;0.70;;;29.10;72.00;;;;;;3579361;40;20396;-68
2021/07/02 10:49:34;;;;;;;1.10;0.50;;;;;;;;;;3576667;40;20452;-69
2021/07/02 10:52:01;;;;;;;2.00;0.50;;;;;;;;;;3577607;40;20394;-68
2021/07/02 10:54:30;;;;;;;2.45;0.60;;;;;;;;;;3577723;40;20745;-68
2021/07/02 10:57:12;;;;;;;2.50;0.70;;;;;;;;;;3576841;40;20514;-68
2021/07/02 11:00:08;;;;;;;2.20;0.70;;;29.30;72.80;;;;;;3578040;40;20372;-68
2021/07/02 11:02:34;;;;;;;2.45;0.70;;;29.00;73.70;;;;;;3576069;40;20907;-68
2021/07/02 11:05:01;;;;;;;2.20;0.70;;;;;;;;;;3576824;40;20660;-68
2021/07/02 11:07:40;;;;;;;5.75;0.70;;;;;;;;;;3585509;40;20395;-68
2021/07/02 11:10:08;;;;;;;6.47;0.88;;;;;;;;;;3585094;40;20405;-68
2021/07/02 11:12:38;;;;;;;3.55;0.60;;;;;;;;;;3574242;40;20656;-68
2021/07/02 11:15:08;;;;;;;3.03;0.80;;;;;;;;;;3588263;40;20382;-68
2021/07/02 11:17:35;;;;;;;3.75;0.77;;;;;;;;;;3588679;40;20650;-69
2021/07/02 11:20:20;;;;;;;3.13;0.90;;;;;;;;;;3586296;40;20442;-69
2021/07/02 11:22:47;;;;;;;2.13;0.60;;;;;;;;;;3578657;40;20767;-68
2021/07/02 11:25:17;;;;;;;1.65;0.60;;;;;;;;;;3586161;40;20381;-68
2021/07/02 11:27:48;;;;;;;5.13;1.05;;;;;;;;;;3585891;40;20391;-69
2021/07/02 11:32:53;;;;;;;1.55;0.50;;;29.60;69.60;;;;;;3584213;40;20393;-69
2021/07/02 11:35:21;;;;;;;2.15;0.70;;;29.60;70.20;;;;;;3585712;40;20386;-68
2021/07/02 11:38:04;;;;;;;1.05;0.60;;;;;;;;;;3586032;40;20394;-69
2021/07/02 11:40:31;;;;;;;2.67;0.50;;;;;;;;;;3583579;40;20738;-68
2021/07/02 11:42:59;;;;;;;1.65;0.40;;;;;;;;;;3586967;40;20475;-68
2021/07/02 11:45:38;;;;;;;3.80;0.60;;;;;;;;;;3585023;40;20468;-68
2021/07/02 11:48:05;;;;;;;1.58;0.43;;;;;;;;;;3585484;40;20370;-68
2021/07/02 11:50:38;;;;;;;1.60;0.50;;;;;;;;;;3583053;40;20366;-68
2021/07/02 11:53:04;;;;;;;2.30;0.50;;;;;;;;;;3584484;40;20882;-68
2021/07/02 11:55:31;;;;;;;2.38;0.40;;;;;;;;;;3589424;40;20385;-69
2021/07/02 11:58:13;;;;;;;1.55;0.40;;;29.80;69.90;;;;;;3589749;40;20393;-69
2021/07/02 12:00:39;;;;;;;0.80;0.30;;;31.20;64.70;;;;;;3578053;40;20402;-69
2021/07/02 12:03:06;;;;;;;1.33;0.32;;;31.20;64.30;;;;;;3589713;40;20564;-69
2021/07/02 12:05:32;;;;;;;1.08;0.40;;;31.20;63.70;;;;;;3590051;40;20497;-69
2021/07/02 12:07:58;;;;;;;1.37;0.60;;;31.20;66.20;;;;;;3587323;40;20431;-69
2021/07/02 12:10:25;;;;;;;1.77;0.35;;;;;;;;;;3589556;40;20418;-69
2021/07/02 12:13:04;;;;;;;1.45;0.30;;;31.30;97.30;;;;;;3589619;40;20376;-68
2021/07/02 12:15:32;;;;;;;0.90;0.30;;;;;;;;;;3590912;40;20426;-69
2021/07/02 12:18:05;;;;;;;0.98;0.40;;;;;;;;;;3588121;40;20402;-69
2021/07/02 12:20:31;;;;;;;2.57;0.43;;;;;;;;;;3589404;40;20760;-69
2021/07/02 12:23:01;;;;;;;2.13;0.70;;;;;;;;;;3589225;40;20365;-68
2021/07/02 12:25:28;;;;;;;3.15;0.40;;;;;;;;;;3590015;40;20411;-68
2021/07/02 12:27:57;;;;;;;1.50;0.50;;;;;;;;;;3589068;40;20388;-68
2021/07/02 12:30:23;;;;;;;1.23;0.38;;;;;;;;;;3589329;40;20445;-69
2021/07/02 12:32:52;;;;;;;1.38;0.60;;;;;;;;;;3589727;40;20382;-68
2021/07/02 12:35:19;;;;;;;1.90;0.40;;;;;;;;;;3589627;40;20398;-68
2021/07/02 12:37:45;;;;;;;4.47;0.60;;;;;;;;;;3589449;40;20416;-68
2021/07/02 12:40:13;;;;;;;2.70;0.40;;;;;;;;;;3585942;40;20366;-69
2021/07/02 12:42:42;;;;;;;1.73;0.50;;;31.70;63.20;;;;;;3587529;40;20756;-68
2021/07/02 12:45:13;;;;;;;2.60;0.30;;;31.10;65.30;;;;;;3589825;40;20441;-68
2021/07/02 12:47:41;;;;;;;2.70;0.40;;;31.00;66.40;;;;;;3587482;40;20744;-68
2021/07/02 12:50:12;;;;;;;2.67;0.40;;;31.10;66.20;;;;;;3587445;40;20534;-69
2021/07/02 12:55:06;;;;;;;1.55;0.30;;;;;;;;;;3587127;40;20387;-68
2021/07/02 12:57:33;;;;;;;3.40;0.40;;;;;;;;;;3587676;40;20778;-68
2021/07/02 13:00:00;;;;;;;1.55;0.40;;;;;;;;;;3587616;40;20370;-69
2021/07/02 13:02:32;;;;;;;0.85;0.40;;;31.50;63.70;;;;;;3585070;40;20454;-68
2021/07/02 13:04:59;;;;;;;1.13;0.40;;;30.90;69.80;;;;;;3587416;40;20410;-68
2021/07/02 13:07:43;;;;;;;2.33;0.50;;;31.20;63.70;;;;;;3574960;40;20419;-68
2021/07/02 13:10:10;;;;;;;2.70;0.45;;;;;;;;;;3576482;40;20500;-69
2021/07/02 13:12:36;;;;;;;1.10;0.55;;;31.10;65.10;;;;;;3582826;40;20379;-69
2021/07/02 13:15:10;;;;;;;2.45;0.40;;;;;;;;;;3577458;40;20762;-68
2021/07/02 13:17:42;;;;;;;2.42;0.43;;;;;;;;;;3577282;40;20404;-69
2021/07/02 13:20:09;;;;;;;2.55;0.40;;;;;;;;;;3577123;40;20368;-69
2021/07/02 13:22:37;;;;;;;1.52;0.47;;;;;;;;;;3577157;40;20379;-69
2021/07/02 13:25:04;;;;;;;1.60;0.40;;;;;;;;;;3577268;40;20400;-69
2021/07/02 13:27:31;;;;;;;2.53;0.50;;;;;;;;;;3577308;40;20479;-69
2021/07/02 13:30:00;;;;;;;1.35;0.60;;;;;;;;;;3577218;40;20396;-69
2021/07/02 13:32:26;;;;;;;2.35;0.50;;;31.80;63.00;;;;;;3577167;40;20708;-68
2021/07/02 13:34:52;;;;;;;1.88;0.40;;;31.20;64.20;;;;;;3580759;40;20406;-68
2021/07/02 13:37:30;;;;;;;4.00;0.60;;;31.30;64.10;;;;;;3577199;40;20383;-68
2021/07/02 13:39:57;;;;;;;2.85;0.52;;;31.20;63.80;;;;;;3577285;40;20801;-69
2021/07/02 13:42:25;;;;;;;1.70;0.40;;;31.20;63.40;;;;;;3581569;40;20428;-69
2021/07/02 13:44:53;;;;;;;1.17;0.40;;;31.20;64.30;;;;;;3580330;40;20426;-69
2021/07/02 13:47:25;;;;;;;2.83;0.80;;;31.60;66.50;;;;;;3579793;40;20456;-69
2021/07/02 13:49:51;;;;;;;1.55;0.30;;;31.60;63.90;;;;;;3581763;40;20485;-69
2021/07/02 13:52:17;;;;;;;1.20;0.30;;;;;;;;;;3580150;40;20787;-69
2021/07/02 13:54:44;;;;;;;2.13;0.40;;;;;;;;;;3579789;40;20636;-69
2021/07/02 13:57:11;;;;;;;1.70;0.50;;;;;;;;;;3581577;40;20383;-69
2021/07/02 13:59:39;;;;;;;2.40;0.50;;;32.00;63.00;;;;;;3580843;40;20400;-70
2021/07/02 14:02:05;;;;;;;1.85;0.50;;;33.00;62.50;;;;;;3580216;40;20396;-69
2021/07/02 14:04:31;;;;;;;3.90;0.53;;;33.10;60.40;;;;;;3580296;40;20416;-69